Time;durP1;ratioP1;P1;durP2;ratioP2;P2;SDS_P1;SDS_P2;PMS_P1;PMS_P2;Temp;Humidity;BMP_temperature;BMP_pressure;BME280_temperature;BME280_humidity;BME280_pressure;Samples;Min_cycle;Max_cycle;Signal;HPM_P1;HPM_P2
2023/08/24 00:00:12;;;;;;;4.78;1.90;;;;;;;;;;5028560;28;20026;-89
2023/08/24 00:02:37;;;;;;;3.47;1.92;;;;;;;;;;5022095;28;20474;-85
2023/08/24 00:05:03;;;;;;;3.67;2.13;;;;;;;;;;5010347;28;20037;-89
2023/08/24 00:07:29;;;;;;;3.83;1.63;;;;;;;;;;5008968;28;20014;-87
2023/08/24 00:09:54;;;;;;;4.03;2.13;;;;;;;;;;5020914;28;20359;-88
2023/08/24 00:12:20;;;;;;;3.75;2.10;;;;;;;;;;5011233;28;20046;-88
2023/08/24 00:14:45;;;;;;;3.20;2.05;;;;;;;;;;5008555;28;20029;-88
2023/08/24 00:17:11;;;;;;;3.55;2.10;;;;;;;;;;5006243;28;20030;-89
2023/08/24 00:19:36;;;;;;;3.42;1.75;;;;;;;;;;5004950;28;20033;-88
2023/08/24 00:22:01;;;;;;;3.03;1.80;;;;;;;;;;5008863;28;20508;-89
2023/08/24 00:24:27;;;;;;;5.68;2.05;;;;;;;;;;5005014;28;20056;-86
2023/08/24 00:26:52;;;;;;;3.13;1.90;;;;;;;;;;5009135;28;20053;-87
2023/08/24 00:29:17;;;;;;;3.33;1.95;;;;;;;;;;5011591;28;20044;-90
2023/08/24 00:31:43;;;;;;;3.60;2.20;;;;;;;;;;5010123;28;20486;-90
2023/08/24 00:34:09;;;;;;;3.83;1.90;;;;;;;;;;5020323;28;20037;-88
2023/08/24 00:36:34;;;;;;;3.33;1.98;;;;;;;;;;5015274;28;20044;-87
2023/08/24 00:39:00;;;;;;;4.40;1.70;;;;;;;;;;5028501;28;20144;-89
2023/08/24 00:41:26;;;;;;;5.05;2.20;;;;;;;;;;5006574;28;20060;-87
2023/08/24 00:43:51;;;;;;;4.85;2.30;;;;;;;;;;5008798;28;20018;-88
2023/08/24 00:46:18;;;;;;;4.20;2.05;;;;;;;;;;5012744;28;20029;-90
2023/08/24 00:48:43;;;;;;;4.45;2.10;;;;;;;;;;5008628;28;20099;-88
2023/08/24 00:51:09;;;;;;;4.38;2.08;;;;;;;;;;5011059;28;20470;-88
2023/08/24 00:53:36;;;;;;;3.97;2.20;;;;;;;;;;5015639;28;20060;-89
2023/08/24 00:56:03;;;;;;;4.13;1.80;;;;;;;;;;5007740;28;20394;-89
2023/08/24 00:58:28;;;;;;;3.47;2.05;;;;;;;;;;5005021;28;20389;-88
2023/08/24 01:00:56;;;;;;;5.82;2.10;;;;;;;;;;5010971;28;20022;-89
2023/08/24 01:03:23;;;;;;;3.88;2.00;;;;;;;;;;5006640;28;20029;-84
2023/08/24 01:05:49;;;;;;;4.43;2.15;;;;;;;;;;5005179;28;20024;-84
2023/08/24 01:08:14;;;;;;;3.92;2.50;;;;;;;;;;5003854;28;20394;-84
2023/08/24 01:11:09;;;;;;;3.40;2.20;;;;;;;;;;5007936;28;20527;-85
2023/08/24 01:14:02;;;;;;;4.93;2.40;;;;;;;;;;5000134;28;20117;-87
2023/08/24 01:16:29;;;;;;;4.23;2.50;;;;;;;;;;4971331;28;20493;-89
2023/08/24 01:18:59;;;;;;;5.10;2.45;;;;;;;;;;5009463;28;20026;-89
2023/08/24 01:21:28;;;;;;;3.88;2.10;;;;;;;;;;5004754;28;20038;-88
2023/08/24 01:24:22;;;;;;;3.90;2.22;;;;;;;;;;5008836;28;20457;-89
2023/08/24 01:26:49;;;;;;;5.28;2.33;;;;;;;;;;5010143;28;20038;-88
2023/08/24 01:29:15;;;;;;;6.20;2.67;;;;;;;;;;5004082;28;20461;-89
2023/08/24 01:31:41;;;;;;;5.85;2.25;;;;;;;;;;5015269;28;20045;-89
2023/08/24 01:34:06;;;;;;;6.57;2.60;;;;;;;;;;5009663;28;20058;-86
2023/08/24 01:36:31;;;;;;;4.00;2.03;;;;;;;;;;5017827;28;20220;-88
2023/08/24 01:39:14;;;;;;;4.60;2.55;;;;;;;;;;5009558;28;20037;-89
2023/08/24 01:41:46;;;;;;;4.03;2.25;;;;;;;;;;5008736;28;20108;-86
2023/08/24 01:44:14;;;;;;;3.97;2.13;;;;;;;;;;5011145;28;20165;-84
2023/08/24 01:46:42;;;;;;;4.95;2.30;;;;;;;;;;5010846;28;20026;-86
2023/08/24 01:49:09;;;;;;;5.63;2.53;;;;;;;;;;5023864;28;20060;-89
2023/08/24 01:51:35;;;;;;;3.10;2.10;;;;;;;;;;5006970;28;20536;-86
2023/08/24 01:54:01;;;;;;;4.22;2.33;;;;;;;;;;5011195;28;20382;-88
2023/08/24 01:56:26;;;;;;;4.57;2.50;;;;;;;;;;5013507;28;20022;-90
2023/08/24 01:58:51;;;;;;;4.53;2.60;;;;;;;;;;5006667;28;20338;-89
2023/08/24 02:01:17;;;;;;;4.55;2.58;;;;;;;;;;5009236;28;20204;-89
2023/08/24 02:03:42;;;;;;;4.88;2.22;;;;;;;;;;5006520;28;20030;-89
2023/08/24 02:06:08;;;;;;;4.72;1.95;;;;;;;;;;5011015;28;20027;-87
2023/08/24 02:08:34;;;;;;;3.47;2.20;;;;;;;;;;5004428;28;20113;-88
2023/08/24 02:10:59;;;;;;;3.92;2.22;;;;;;;;;;5005208;28;20554;-89
2023/08/24 02:13:25;;;;;;;5.15;2.83;;;;;;;;;;5010110;28;20029;-82
2023/08/24 02:15:50;;;;;;;3.90;2.47;;;;;;;;;;5005981;28;20504;-82
2023/08/24 02:18:16;;;;;;;4.35;2.33;;;;;;;;;;5004510;28;20457;-82
2023/08/24 02:20:41;;;;;;;3.55;2.13;;;;;;;;;;5011040;28;20037;-82
2023/08/24 02:23:06;;;;;;;5.32;2.53;;;;;;;;;;5021534;28;20034;-84
2023/08/24 02:25:32;;;;;;;4.93;2.40;;;;;;;;;;5002311;28;20033;-85
2023/08/24 02:27:58;;;;;;;3.30;2.15;;;;;;;;;;5008297;28;20422;-84
2023/08/24 02:30:24;;;;;;;4.93;2.38;;;;;;;;;;5007664;28;20022;-84
2023/08/24 02:32:50;;;;;;;4.07;2.40;;;;;;;;;;5007506;28;20026;-82
2023/08/24 02:35:16;;;;;;;3.67;2.42;;;;;;;;;;5010362;28;20136;-82
2023/08/24 02:37:41;;;;;;;4.95;2.40;;;;;;;;;;5006627;28;20112;-82
2023/08/24 02:40:09;;;;;;;6.43;2.97;;;;;;;;;;5006786;28;20025;-83
2023/08/24 02:42:35;;;;;;;3.60;2.30;;;;;;;;;;5012686;28;20049;-88
2023/08/24 02:45:00;;;;;;;8.25;2.70;;;;;;;;;;5010925;28;20033;-86
2023/08/24 02:47:25;;;;;;;5.10;3.30;;;;;;;;;;5008822;28;20030;-86
2023/08/24 02:49:51;;;;;;;5.47;2.47;;;;;;;;;;5018926;28;20125;-88
2023/08/24 02:52:17;;;;;;;4.88;2.80;;;;;;;;;;5025096;28;20084;-89
2023/08/24 02:54:42;;;;;;;6.07;3.30;;;;;;;;;;5012292;28;20068;-87
2023/08/24 02:57:08;;;;;;;5.05;3.05;;;;;;;;;;5012351;28;20160;-86
2023/08/24 02:59:33;;;;;;;5.45;3.03;;;;;;;;;;5018230;28;20043;-84
2023/08/24 03:01:59;;;;;;;4.88;3.00;;;;;;;;;;5014056;28;20028;-82
2023/08/24 03:04:24;;;;;;;4.88;3.38;;;;;;;;;;5004030;28;20030;-81
2023/08/24 03:06:49;;;;;;;7.43;3.40;;;;;;;;;;5011264;28;20022;-81
2023/08/24 03:09:15;;;;;;;6.88;3.45;;;;;;;;;;5011585;28;20033;-81
2023/08/24 03:11:41;;;;;;;7.90;4.40;;;;;;;;;;5016366;28;20026;-81
2023/08/24 03:14:06;;;;;;;6.88;3.13;;;;;;;;;;5011135;28;20108;-81
2023/08/24 03:16:32;;;;;;;5.72;3.35;;;;;;;;;;5013645;28;20026;-81
2023/08/24 03:18:58;;;;;;;5.68;3.33;;;;;;;;;;5008309;28;20034;-81
2023/08/24 03:21:23;;;;;;;5.18;3.58;;;;;;;;;;5008041;28;20084;-81
2023/08/24 03:23:49;;;;;;;6.05;4.15;;;;;;;;;;5012422;28;20030;-81
2023/08/24 03:26:16;;;;;;;5.93;4.00;;;;;;;;;;5005517;28;20026;-81
2023/08/24 03:28:41;;;;;;;4.97;3.65;;;;;;;;;;5004115;28;20021;-81
2023/08/24 03:31:07;;;;;;;6.45;3.83;;;;;;;;;;5009802;28;20105;-81
2023/08/24 03:33:34;;;;;;;6.55;3.85;;;;;;;;;;5006006;28;20041;-81
2023/08/24 03:36:00;;;;;;;6.60;4.70;;;;;;;;;;5007124;28;20018;-81
2023/08/24 03:38:26;;;;;;;6.35;4.18;;;;;;;;;;5009419;28;20043;-81
2023/08/24 03:40:52;;;;;;;7.03;4.50;;;;;;;;;;5004202;28;20025;-81
2023/08/24 03:43:17;;;;;;;7.72;4.40;;;;;;;;;;5014088;28;20034;-81
2023/08/24 03:45:43;;;;;;;6.90;4.38;;;;;;;;;;5006541;28;20036;-81
2023/08/24 03:48:08;;;;;;;6.43;4.57;;;;;;;;;;5006120;28;20513;-81
2023/08/24 03:50:34;;;;;;;8.77;4.82;;;;;;;;;;5002264;28;20065;-81
2023/08/24 03:52:59;;;;;;;6.88;4.38;;;;;;;;;;5024398;28;20021;-81
2023/08/24 03:55:25;;;;;;;9.38;4.70;;;;;;;;;;5012591;28;20033;-81
2023/08/24 03:57:51;;;;;;;6.38;4.60;;;;;;;;;;5010654;28;20124;-81
2023/08/24 04:00:16;;;;;;;7.95;4.65;;;;;;;;;;5006053;28;20029;-81
2023/08/24 04:02:42;;;;;;;6.07;3.90;;;;;;;;;;5006050;28;20105;-81
2023/08/24 04:05:08;;;;;;;6.68;4.57;;;;;;;;;;5005138;28;20033;-81
2023/08/24 04:07:36;;;;;;;6.45;4.30;;;;;;;;;;5007514;28;20028;-81
2023/08/24 04:10:03;;;;;;;6.90;4.20;;;;;;;;;;5006904;28;20096;-80
2023/08/24 04:12:28;;;;;;;7.35;4.80;;;;;;;;;;5015842;28;20022;-81
2023/08/24 04:14:54;;;;;;;7.35;4.82;;;;;;;;;;5012014;28;20121;-79
2023/08/24 04:17:19;;;;;;;6.68;4.43;;;;;;;;;;5015833;28;21133;-79
2023/08/24 04:19:44;;;;;;;7.65;4.85;;;;;;;;;;5012206;28;20080;-79
2023/08/24 04:22:10;;;;;;;6.88;4.25;;;;;;;;;;5014564;28;20118;-79
2023/08/24 04:24:35;;;;;;;6.82;4.47;;;;;;;;;;5013571;28;20030;-79
2023/08/24 04:27:01;;;;;;;6.90;4.70;;;;;;;;;;5021976;28;20014;-79
2023/08/24 04:29:26;;;;;;;9.80;5.22;;;;;;;;;;5015615;28;20036;-79
2023/08/24 04:31:52;;;;;;;7.70;4.65;;;;;;;;;;5013169;28;20040;-79
2023/08/24 04:34:17;;;;;;;8.30;5.28;;;;;;;;;;5014599;28;20025;-79
2023/08/24 04:36:42;;;;;;;6.28;4.63;;;;;;;;;;5007965;28;20021;-79
2023/08/24 04:39:08;;;;;;;6.72;4.60;;;;;;;;;;5013600;28;20145;-81
2023/08/24 04:41:33;;;;;;;9.90;5.07;;;;;;;;;;5010172;28;20059;-81
2023/08/24 04:43:58;;;;;;;9.55;5.43;;;;;;;;;;5016150;28;20389;-81
2023/08/24 04:46:24;;;;;;;7.68;5.22;;;;;;;;;;5015304;28;20014;-81
2023/08/24 04:48:49;;;;;;;8.98;6.10;;;;;;;;;;5030758;28;20029;-79
2023/08/24 04:51:15;;;;;;;7.93;5.20;;;;;;;;;;5017845;28;20038;-79
2023/08/24 04:53:40;;;;;;;8.27;5.13;;;;;;;;;;5034061;28;20494;-80
2023/08/24 04:56:05;;;;;;;7.97;5.60;;;;;;;;;;5019098;28;20413;-79
2023/08/24 04:58:33;;;;;;;7.53;5.18;;;;;;;;;;5016441;28;20044;-80
2023/08/24 05:00:58;;;;;;;8.65;5.20;;;;;;;;;;5011569;28;20793;-81
2023/08/24 05:03:23;;;;;;;7.63;5.18;;;;;;;;;;5010700;28;20070;-78
2023/08/24 05:05:49;;;;;;;8.40;5.95;;;;;;;;;;5007727;28;20044;-77
2023/08/24 05:08:14;;;;;;;7.65;5.20;;;;;;;;;;5009946;28;20088;-77
2023/08/24 05:10:40;;;;;;;8.65;5.80;;;;;;;;;;5014703;28;20033;-78
2023/08/24 05:13:06;;;;;;;7.40;4.88;;;;;;;;;;5011136;28;20053;-77
2023/08/24 05:15:31;;;;;;;9.45;5.70;;;;;;;;;;5004370;28;20037;-78
2023/08/24 05:17:59;;;;;;;9.40;5.85;;;;;;;;;;5009919;28;20042;-77
2023/08/24 05:20:27;;;;;;;8.30;5.40;;;;;;;;;;5010792;28;20437;-77
2023/08/24 05:22:56;;;;;;;8.57;5.50;;;;;;;;;;5012689;28;20065;-78
2023/08/24 05:25:22;;;;;;;7.80;6.03;;;;;;;;;;5011590;28;20410;-77
2023/08/24 05:27:48;;;;;;;8.50;5.75;;;;;;;;;;5014590;28;20441;-78
2023/08/24 05:30:13;;;;;;;8.70;6.15;;;;;;;;;;5010880;28;20057;-78
2023/08/24 05:32:39;;;;;;;8.10;6.07;;;;;;;;;;5011886;28;20520;-78
2023/08/24 05:35:08;;;;;;;11.73;6.10;;;;;;;;;;5008642;28;20112;-78
2023/08/24 05:37:35;;;;;;;10.02;6.05;;;;;;;;;;5011220;28;20030;-79
2023/08/24 05:40:01;;;;;;;11.57;5.97;;;;;;;;;;5010984;28;20029;-80
2023/08/24 05:42:27;;;;;;;8.15;5.15;;;;;;;;;;5007888;28;20505;-80
2023/08/24 05:44:52;;;;;;;8.85;5.45;;;;;;;;;;5013232;28;20057;-80
2023/08/24 05:47:18;;;;;;;9.50;5.97;;;;;;;;;;5002293;28;20060;-80
2023/08/24 05:49:43;;;;;;;9.30;6.13;;;;;;;;;;5012008;28;20470;-79
2023/08/24 05:52:08;;;;;;;9.05;6.30;;;;;;;;;;5009439;28;20413;-78
2023/08/24 05:54:36;;;;;;;7.60;5.85;;;;;;;;;;5029472;28;20056;-77
2023/08/24 05:57:01;;;;;;;8.85;6.68;;;;;;;;;;5007849;28;20080;-78
2023/08/24 05:59:27;;;;;;;9.82;6.40;;;;;;;;;;5010610;28;20038;-78
2023/08/24 06:01:52;;;;;;;10.50;6.40;;;;;;;;;;5003911;28;20022;-78
2023/08/24 06:04:18;;;;;;;11.43;6.55;;;;;;;;;;5006767;28;20406;-79
2023/08/24 06:06:43;;;;;;;12.27;7.03;;;;;;;;;;5010736;28;20021;-79
2023/08/24 06:09:09;;;;;;;9.95;6.97;;;;;;;;;;5008769;28;20033;-80
2023/08/24 06:11:35;;;;;;;10.77;6.97;;;;;;;;;;5007708;28;20112;-79
2023/08/24 06:14:01;;;;;;;10.50;6.95;;;;;;;;;;5003672;28;20125;-81
2023/08/24 06:16:30;;;;;;;11.15;7.28;;;;;;;;;;5011266;28;20022;-81
2023/08/24 06:18:55;;;;;;;10.23;6.75;;;;;;;;;;5008655;28;20424;-82
2023/08/24 06:21:21;;;;;;;11.15;7.63;;;;;;;;;;5006570;28;20040;-82
2023/08/24 06:23:47;;;;;;;9.45;6.63;;;;;;;;;;5006753;28;20491;-80
2023/08/24 06:26:13;;;;;;;10.52;6.93;;;;;;;;;;5003327;28;20058;-80
2023/08/24 06:28:39;;;;;;;11.35;7.68;;;;;;;;;;5006109;28;20370;-80
2023/08/24 06:31:05;;;;;;;8.90;6.70;;;;;;;;;;5002157;28;20033;-80
2023/08/24 06:33:34;;;;;;;10.98;7.68;;;;;;;;;;5019921;28;20034;-81
2023/08/24 06:36:01;;;;;;;10.23;6.60;;;;;;;;;;5005576;28;20030;-81
2023/08/24 06:38:26;;;;;;;8.60;7.10;;;;;;;;;;5005774;28;20585;-79
2023/08/24 06:40:52;;;;;;;9.05;5.82;;;;;;;;;;5006891;28;20116;-79
2023/08/24 06:43:17;;;;;;;11.73;9.65;;;;;;;;;;5007626;28;20036;-79
2023/08/24 06:45:44;;;;;;;10.48;7.88;;;;;;;;;;5017480;28;20038;-79
2023/08/24 06:48:09;;;;;;;13.82;9.73;;;;;;;;;;5025502;28;20075;-79
2023/08/24 06:50:36;;;;;;;17.33;11.02;;;;;;;;;;5006372;28;20117;-80
2023/08/24 06:53:03;;;;;;;13.35;10.80;;;;;;;;;;5011083;28;20123;-80
2023/08/24 06:55:28;;;;;;;14.10;10.20;;;;;;;;;;5008423;28;20032;-81
2023/08/24 06:57:54;;;;;;;12.25;9.30;;;;;;;;;;5004723;28;20034;-80
2023/08/24 07:00:19;;;;;;;15.25;9.82;;;;;;;;;;5008244;28;20033;-80
2023/08/24 07:02:49;;;;;;;15.48;10.27;;;;;;;;;;5008498;28;20045;-81
2023/08/24 07:05:18;;;;;;;13.90;10.75;;;;;;;;;;5000693;28;20474;-79
2023/08/24 07:07:44;;;;;;;13.25;10.13;;;;;;;;;;5012808;28;20022;-79
2023/08/24 07:10:10;;;;;;;15.68;11.25;;;;;;;;;;5006400;28;20394;-80
2023/08/24 07:12:35;;;;;;;14.23;10.63;;;;;;;;;;5007197;28;20029;-80
2023/08/24 07:15:01;;;;;;;15.10;11.23;;;;;;;;;;5001932;28;20033;-79
2023/08/24 07:17:28;;;;;;;15.70;10.77;;;;;;;;;;5008818;28;20034;-80
2023/08/24 07:19:53;;;;;;;13.70;11.32;;;;;;;;;;5005411;28;20417;-79
2023/08/24 07:22:19;;;;;;;13.95;10.55;;;;;;;;;;5005415;28;20120;-78
2023/08/24 07:24:45;;;;;;;14.60;9.98;;;;;;;;;;5009676;28;20026;-78
2023/08/24 07:27:10;;;;;;;14.82;9.73;;;;;;;;;;5001174;28;20018;-79
2023/08/24 07:29:35;;;;;;;14.40;10.10;;;;;;;;;;5005480;28;20030;-78
2023/08/24 07:32:01;;;;;;;14.65;10.35;;;;;;;;;;5007940;28;20079;-79
2023/08/24 07:34:26;;;;;;;13.52;9.70;;;;;;;;;;5003884;28;20112;-79
2023/08/24 07:36:52;;;;;;;12.63;9.50;;;;;;;;;;5006652;28;20037;-80
2023/08/24 07:39:18;;;;;;;12.82;9.45;;;;;;;;;;5010532;28;20101;-79
2023/08/24 07:41:45;;;;;;;13.00;9.07;;;;;;;;;;5007736;28;20501;-80
2023/08/24 07:44:10;;;;;;;12.30;8.73;;;;;;;;;;5007901;28;20037;-79
2023/08/24 07:46:35;;;;;;;11.77;8.73;;;;;;;;;;5007349;28;20116;-80
2023/08/24 07:49:01;;;;;;;11.95;8.93;;;;;;;;;;5011987;28;20029;-79
2023/08/24 07:51:27;;;;;;;12.25;8.73;;;;;;;;;;5011580;28;20030;-79
2023/08/24 07:53:53;;;;;;;12.60;8.90;;;;;;;;;;5012786;28;20113;-80
2023/08/24 07:56:19;;;;;;;10.70;7.88;;;;;;;;;;5014768;28;20116;-79
2023/08/24 07:58:44;;;;;;;11.88;8.60;;;;;;;;;;5011175;28;20478;-80
2023/08/24 08:01:10;;;;;;;12.65;8.05;;;;;;;;;;5002144;28;20120;-80
2023/08/24 08:03:35;;;;;;;12.55;8.75;;;;;;;;;;5005822;28;20040;-80
2023/08/24 08:06:01;;;;;;;14.60;8.48;;;;;;;;;;5016415;28;20101;-80
2023/08/24 08:08:26;;;;;;;12.05;8.32;;;;;;;;;;5017696;28;20029;-80
2023/08/24 08:11:02;;;;;;;11.73;7.70;;;;;;;;;;5000471;28;20021;-80
2023/08/24 08:13:29;;;;;;;12.57;8.27;;;;;;;;;;5005084;28;20369;-80
2023/08/24 08:16:00;;;;;;;11.02;7.57;;;;;;;;;;5005015;28;20073;-81
2023/08/24 08:18:26;;;;;;;13.40;8.25;;;;;;;;;;5000055;28;20030;-82
2023/08/24 08:20:52;;;;;;;10.60;7.65;;;;;;;;;;5008056;28;20030;-81
2023/08/24 08:23:17;;;;;;;12.05;7.40;;;;;;;;;;5010397;28;20512;-81
2023/08/24 08:25:43;;;;;;;10.07;6.88;;;;;;;;;;5016074;28;20030;-82
2023/08/24 08:28:08;;;;;;;11.05;6.80;;;;;;;;;;5017400;28;20037;-81
2023/08/24 08:30:34;;;;;;;10.50;6.50;;;;;;;;;;5009921;28;20022;-82
2023/08/24 08:33:00;;;;;;;11.70;6.68;;;;;;;;;;5010272;28;20149;-82
2023/08/24 08:35:26;;;;;;;14.27;8.30;;;;;;;;;;5013124;28;20117;-82
2023/08/24 08:37:53;;;;;;;11.63;7.75;;;;;;;;;;5017477;28;20402;-82
2023/08/24 08:40:19;;;;;;;11.77;7.13;;;;;;;;;;5012628;28;20026;-82
2023/08/24 08:42:45;;;;;;;13.05;7.82;;;;;;;;;;5011870;28;20029;-82
2023/08/24 08:45:10;;;;;;;10.13;7.00;;;;;;;;;;5012740;28;20073;-82
2023/08/24 08:47:37;;;;;;;11.07;7.30;;;;;;;;;;5009244;28;20030;-83
2023/08/24 08:50:03;;;;;;;9.48;6.68;;;;;;;;;;5015155;28;20091;-83
2023/08/24 08:52:29;;;;;;;10.10;7.10;;;;;;;;;;5015270;28;20026;-82
2023/08/24 08:54:54;;;;;;;10.13;7.32;;;;;;;;;;5016042;28;20032;-83
2023/08/24 08:57:22;;;;;;;11.65;7.50;;;;;;;;;;5024063;28;20026;-82
2023/08/24 08:59:50;;;;;;;15.07;8.15;;;;;;;;;;5015998;28;20026;-83
2023/08/24 09:02:19;;;;;;;9.50;7.35;;;;;;;;;;5018027;28;20101;-82
2023/08/24 09:04:44;;;;;;;11.05;7.43;;;;;;;;;;5022521;28;20034;-83
2023/08/24 09:07:12;;;;;;;11.25;7.60;;;;;;;;;;5028180;28;20050;-82
2023/08/24 09:09:38;;;;;;;13.15;8.13;;;;;;;;;;5024945;28;20094;-83
2023/08/24 09:12:06;;;;;;;9.50;7.40;;;;;;;;;;5019080;28;20018;-82
2023/08/24 09:14:31;;;;;;;13.07;7.97;;;;;;;;;;5032883;28;20038;-83
2023/08/24 09:16:56;;;;;;;13.27;8.38;;;;;;;;;;5030132;28;20106;-84
2023/08/24 09:19:32;;;;;;;14.52;8.55;;;;;;;;;;5025649;28;20201;-83
2023/08/24 09:21:58;;;;;;;13.35;7.50;;;;;;;;;;5029306;28;20084;-83
2023/08/24 09:24:35;;;;;;;11.32;7.55;;;;;;;;;;5024765;28;20030;-83
2023/08/24 09:27:15;;;;;;;8.95;6.40;;;;;;;;;;5042984;28;20056;-83
2023/08/24 09:29:40;;;;;;;10.73;7.10;;;;;;;;;;5025589;28;20030;-83
2023/08/24 09:32:08;;;;;;;12.10;8.10;;;;;;;;;;5027292;28;20065;-82
2023/08/24 09:34:35;;;;;;;12.00;7.18;;;;;;;;;;5027660;28;20018;-83
2023/08/24 09:37:04;;;;;;;11.13;8.18;;;;;;;;;;5023277;28;20061;-83
2023/08/24 09:39:29;;;;;;;11.73;8.02;;;;;;;;;;5028132;28;20033;-83
2023/08/24 09:42:02;;;;;;;11.05;8.07;;;;;;;;;;5211796;22;20490;-85
2023/08/24 09:44:28;;;;;;;11.60;8.23;;;;;;;;;;5007151;28;20041;-82
2023/08/24 09:46:53;;;;;;;12.73;8.40;;;;;;;;;;5006045;28;20026;-82
2023/08/24 09:49:19;;;;;;;11.40;7.90;;;;;;;;;;5007406;28;20032;-81
2023/08/24 09:51:45;;;;;;;11.07;8.43;;;;;;;;;;5006847;28;20026;-82
2023/08/24 09:54:11;;;;;;;10.43;8.02;;;;;;;;;;5006380;28;20030;-82
2023/08/24 09:56:41;;;;;;;13.27;8.65;;;;;;;;;;5024154;28;20783;-82
2023/08/24 09:59:17;;;;;;;10.75;7.53;;;;;;;;;;5006015;28;20663;-79
2023/08/24 10:01:47;;;;;;;14.45;7.97;;;;;;;;;;5001681;28;20073;-79
2023/08/24 10:04:13;;;;;;;10.05;7.85;;;;;;;;;;5001532;28;20188;-78
2023/08/24 10:06:41;;;;;;;10.93;6.78;;;;;;;;;;5009927;28;20109;-79
2023/08/24 10:09:08;;;;;;;9.05;6.60;;;;;;;;;;5007726;28;20040;-79
2023/08/24 10:11:40;;;;;;;8.65;5.30;;;;;;;;;;5010064;28;20073;-79
2023/08/24 10:14:28;;;;;;;8.68;5.90;;;;;;;;;;5008396;28;20397;-79
2023/08/24 10:16:55;;;;;;;12.13;7.55;;;;;;;;;;5008155;28;20485;-79
2023/08/24 10:19:22;;;;;;;10.30;7.38;;;;;;;;;;5007278;28;20029;-79
2023/08/24 10:21:50;;;;;;;9.32;6.60;;;;;;;;;;5008023;28;20036;-81
2023/08/24 10:24:16;;;;;;;10.57;7.63;;;;;;;;;;5007170;28;20026;-80
2023/08/24 10:26:43;;;;;;;12.27;7.45;;;;;;;;;;5009721;28;20075;-78
2023/08/24 10:29:08;;;;;;;9.93;6.47;;;;;;;;;;5009207;28;20026;-79
2023/08/24 10:31:35;;;;;;;9.85;5.38;;;;;;;;;;5000290;28;20072;-78
2023/08/24 10:34:01;;;;;;;9.60;6.60;;;;;;;;;;4991959;28;20402;-79
2023/08/24 10:36:28;;;;;;;9.43;7.10;;;;;;;;;;4992003;28;20038;-79
2023/08/24 10:38:57;;;;;;;10.02;6.25;;;;;;;;;;4994323;28;20509;-79
2023/08/24 10:41:26;;;;;;;10.38;5.90;;;;;;;;;;4996656;28;20030;-79
2023/08/24 10:43:52;;;;;;;10.68;5.63;;;;;;;;;;4990589;28;20391;-81
2023/08/24 10:46:17;;;;;;;9.32;5.72;;;;;;;;;;4988372;28;20037;-81
2023/08/24 10:48:44;;;;;;;9.65;6.25;;;;;;;;;;4990174;28;20026;-81
2023/08/24 10:51:28;;;;;;;8.13;6.35;;;;;;;;;;4989313;28;20414;-82
2023/08/24 10:53:55;;;;;;;13.13;6.72;;;;;;;;;;4992194;28;20022;-79
2023/08/24 10:56:21;;;;;;;10.60;7.10;;;;;;;;;;4986943;28;20081;-79
2023/08/24 10:58:47;;;;;;;9.35;6.30;;;;;;;;;;4990192;28;20027;-79
2023/08/24 11:01:21;;;;;;;8.90;6.18;;;;;;;;;;4990936;28;20554;-79
2023/08/24 11:04:05;;;;;;;12.45;6.75;;;;;;;;;;5004365;28;20097;-80
2023/08/24 11:06:31;;;;;;;9.63;6.50;;;;;;;;;;4995417;28;20556;-78
2023/08/24 11:09:54;;;;;;;9.60;5.85;;;;;;;;;;4991830;28;20038;-79
2023/08/24 11:12:19;;;;;;;10.82;6.60;;;;;;;;;;4974969;28;20058;-79
2023/08/24 11:15:01;;;;;;;10.98;6.15;;;;;;;;;;4987272;28;20072;-79
2023/08/24 11:17:32;;;;;;;10.02;6.00;;;;;;;;;;4990028;28;20038;-79
2023/08/24 11:19:58;;;;;;;8.90;7.25;;;;;;;;;;4996747;28;20117;-80
2023/08/24 11:22:25;;;;;;;8.75;6.40;;;;;;;;;;4991769;28;20057;-80
2023/08/24 11:24:51;;;;;;;8.48;5.97;;;;;;;;;;4992120;28;20052;-79
2023/08/24 11:27:16;;;;;;;11.25;7.00;;;;;;;;;;4990083;28;20027;-80
2023/08/24 11:29:42;;;;;;;9.27;7.40;;;;;;;;;;4997560;28;20128;-80
2023/08/24 11:32:10;;;;;;;9.98;7.10;;;;;;;;;;4992348;28;20415;-81
2023/08/24 11:34:38;;;;;;;9.80;7.05;;;;;;;;;;4996090;28;20426;-82
2023/08/24 11:37:04;;;;;;;12.05;6.43;;;;;;;;;;4996708;28;20030;-80
2023/08/24 11:39:32;;;;;;;12.05;7.95;;;;;;;;;;5001143;28;20134;-80
2023/08/24 11:42:02;;;;;;;9.77;7.85;;;;;;;;;;4998243;28;20402;-78
2023/08/24 11:44:29;;;;;;;12.30;7.68;;;;;;;;;;4991175;28;20085;-80
2023/08/24 11:46:59;;;;;;;12.40;8.82;;;;;;;;;;5003971;28;20022;-79
2023/08/24 11:49:24;;;;;;;12.68;8.15;;;;;;;;;;4992564;28;20033;-80
2023/08/24 11:51:50;;;;;;;11.35;8.05;;;;;;;;;;4995223;28;20030;-80
2023/08/24 11:54:18;;;;;;;12.13;8.93;;;;;;;;;;5486983;22;20035;-85
2023/08/24 11:56:46;;;;;;;13.27;9.60;;;;;;;;;;5004102;28;20047;-84
2023/08/24 11:59:13;;;;;;;14.57;8.70;;;;;;;;;;5004308;28;20034;-83
2023/08/24 12:04:12;;;;;;;;;;;;;;;;;;5030391;28;20065;-87
2023/08/24 12:06:37;;;;;;;14.05;11.43;;;;;;;;;;5017144;28;19933;-84
2023/08/24 12:09:06;;;;;;;16.60;12.77;;;;;;;;;;5044026;28;20026;-84
2023/08/24 12:11:35;;;;;;;11.43;10.18;;;;;;;;;;5030214;28;20739;-83
2023/08/24 12:14:01;;;;;;;13.25;10.70;;;;;;;;;;5028359;28;20327;-83
2023/08/24 12:16:27;;;;;;;15.60;11.50;;;;;;;;;;5030086;28;20030;-83
2023/08/24 12:21:29;;;;;;;13.93;10.52;;;;;;;;;;5049719;22;20049;-87
2023/08/24 12:24:06;;;;;;;11.85;9.63;;;;;;;;;;5043503;28;20029;-82
2023/08/24 12:26:33;;;;;;;12.88;8.95;;;;;;;;;;5062687;28;20045;-83
2023/08/24 12:29:06;;;;;;;11.18;8.00;;;;;;;;;;5036073;28;20101;-83
2023/08/24 12:31:32;;;;;;;11.20;7.43;;;;;;;;;;5030902;28;20091;-82
2023/08/24 12:34:08;;;;;;;10.27;6.13;;;;;;;;;;5022463;28;20088;-83
2023/08/24 12:36:36;;;;;;;9.90;5.97;;;;;;;;;;5021925;28;20113;-83
2023/08/24 12:39:04;;;;;;;9.10;6.47;;;;;;;;;;5021318;28;20021;-84
2023/08/24 12:49:14;;;;;;;10.40;6.40;;;;;;;;;;4999807;28;20066;-84
2023/08/24 12:51:41;;;;;;;11.07;6.25;;;;;;;;;;5420267;22;20049;-87
2023/08/24 12:54:07;;;;;;;9.10;5.32;;;;;;;;;;5039010;28;20018;-85
2023/08/24 12:56:32;;;;;;;10.10;5.35;;;;;;;;;;5038536;28;20006;-87
2023/08/24 13:01:33;;;;;;;10.57;5.10;;;;;;;;;;5262820;22;20058;-91
2023/08/24 13:03:58;;;;;;;13.00;6.28;;;;;;;;;;5032648;28;20033;-81
2023/08/24 13:06:31;;;;;;;9.05;6.45;;;;;;;;;;5027065;28;20033;-82
2023/08/24 13:08:59;;;;;;;8.90;5.43;;;;;;;;;;5011705;28;20461;-82
2023/08/24 13:11:35;;;;;;;10.93;5.65;;;;;;;;;;5022200;28;20052;-81
2023/08/24 13:14:00;;;;;;;11.05;5.85;;;;;;;;;;5026441;28;20180;-82
2023/08/24 13:16:27;;;;;;;12.00;6.55;;;;;;;;;;5024540;28;20029;-82
2023/08/24 13:18:53;;;;;;;11.15;6.00;;;;;;;;;;5043355;28;20404;-82
2023/08/24 13:21:26;;;;;;;10.50;6.32;;;;;;;;;;5025670;28;20109;-82
2023/08/24 13:24:12;;;;;;;11.45;5.68;;;;;;;;;;5027560;28;20087;-81
2023/08/24 13:26:51;;;;;;;11.75;6.15;;;;;;;;;;5025420;28;20029;-81
2023/08/24 13:29:17;;;;;;;10.55;6.00;;;;;;;;;;5024397;28;20504;-82
2023/08/24 13:32:03;;;;;;;8.40;5.82;;;;;;;;;;5039613;28;20120;-81
2023/08/24 13:34:33;;;;;;;9.75;5.72;;;;;;;;;;5026724;28;20420;-82
2023/08/24 13:37:14;;;;;;;9.07;6.47;;;;;;;;;;5021287;28;20022;-82
2023/08/24 13:39:40;;;;;;;11.85;7.68;;;;;;;;;;5018951;28;20925;-82
2023/08/24 13:42:10;;;;;;;11.20;6.32;;;;;;;;;;5024986;28;20031;-82
2023/08/24 13:44:41;;;;;;;11.13;6.57;;;;;;;;;;5026442;28;20030;-82
2023/08/24 13:47:21;;;;;;;8.32;5.53;;;;;;;;;;5021695;28;20117;-83
2023/08/24 13:49:54;;;;;;;8.65;5.55;;;;;;;;;;5027704;28;20030;-82
2023/08/24 13:52:45;;;;;;;9.60;5.75;;;;;;;;;;5025780;28;20044;-82
2023/08/24 13:58:48;;;;;;;6.72;4.70;;;;;;;;;;5021095;28;20065;-82
2023/08/24 14:01:14;;;;;;;7.65;4.43;;;;;;;;;;5023406;28;20656;-82
2023/08/24 14:03:42;;;;;;;6.45;4.53;;;;;;;;;;5026100;28;20493;-82
2023/08/24 14:06:27;;;;;;;6.38;4.10;;;;;;;;;;5030383;28;20083;-82
2023/08/24 14:08:53;;;;;;;8.20;4.35;;;;;;;;;;5023320;28;20378;-80
2023/08/24 14:11:34;;;;;;;;;;;;;;;;;;;;;
2023/08/24 14:14:05;;;;;;;7.73;4.47;;;;;;;;;;5024168;28;20021;-83
2023/08/24 14:16:30;;;;;;;7.18;4.43;;;;;;;;;;5025872;28;20041;-81
2023/08/24 14:18:56;;;;;;;7.47;4.43;;;;;;;;;;5021984;28;20334;-82
2023/08/24 14:21:23;;;;;;;6.35;3.95;;;;;;;;;;5024573;28;20044;-82
2023/08/24 14:23:56;;;;;;;7.32;3.85;;;;;;;;;;5023956;28;20428;-81
2023/08/24 14:26:45;;;;;;;8.10;3.90;;;;;;;;;;5024576;28;20040;-81
2023/08/24 14:29:32;;;;;;;9.10;4.85;;;;;;;;;;5029178;28;20029;-81
2023/08/24 14:32:02;;;;;;;5.55;3.63;;;;;;;;;;5029362;28;20392;-81
2023/08/24 14:34:30;;;;;;;9.23;3.78;;;;;;;;;;5023263;28;20489;-82
2023/08/24 14:37:16;;;;;;;7.43;3.88;;;;;;;;;;5021293;28;20481;-81
2023/08/24 14:39:41;;;;;;;7.13;3.70;;;;;;;;;;5026947;28;20029;-81
2023/08/24 14:42:30;;;;;;;6.70;4.03;;;;;;;;;;5029811;28;20040;-80
2023/08/24 14:45:03;;;;;;;6.72;3.65;;;;;;;;;;5031625;28;20025;-82
2023/08/24 14:47:29;;;;;;;6.65;3.33;;;;;;;;;;5024809;28;20044;-82
2023/08/24 14:50:20;;;;;;;7.30;3.92;;;;;;;;;;5022587;28;20029;-81
2023/08/24 14:52:45;;;;;;;6.90;3.03;;;;;;;;;;5023569;28;20395;-80
2023/08/24 14:55:12;;;;;;;6.63;3.13;;;;;;;;;;5021316;28;20037;-81
2023/08/24 14:57:37;;;;;;;6.63;3.03;;;;;;;;;;5021688;28;20045;-81
2023/08/24 15:00:09;;;;;;;7.38;3.20;;;;;;;;;;5025568;28;20166;-82